Meteo Giornale » Osservazioni meteo Stati Uniti (USA) » Columbus
ore: 21:56 - Osservazioni Meteo Columbus
Lat. 41° 27' N Lon. 97° 20' W Alt. 440 metri s.l.m.
23 °C
Pioggia
Temp. 24 Ore
21 °C
32 °C
Nord
5.5 Km/h
Dew point 22 °C
Umidità 94 %
Visibilità 14 Km
Il sole sorge alle ore 06:54
Il sole tramonta alle ore 20:04
| Data e Ora | Cielo e Fenomeni | T °C | DP °C | Um. % | Pres. hPa | Vis. km | Vento km/h | |
|---|---|---|---|---|---|---|---|---|
| Oggi h: 21:56 | Pioggia | 23 | 22 | 94 | 1014 | 14 | N 5.5 | |
| Oggi h: 20:56 | Pioggia | 24 | 22 | 88 | 1014 | 11 | N 5.5 | |
| Oggi h: 19:56 | Sereno | 27 | 22 | 74 | 1014 | 10 | S/SE 7.4 | |
| Oggi h: 18:56 | Sereno | 31 | 22 | 58 | 1014 | 10 | N 0 | |
| Oggi h: 17:56 | Sereno | 32 | 22 | 55 | 1014 | 10 | N 5.5 | |
| Oggi h: 16:56 | Sereno | 32 | 21 | 52 | 1014 | 10 | N 5.5 | |
| Oggi h: 15:56 | Sereno | 31 | 22 | 58 | 1014 | 10 | N/NO 7.4 | |
| Oggi h: 14:56 | Sereno | 31 | 22 | 58 | 1015 | 10 | S 7.4 | |
| Oggi h: 13:56 | Sereno | 29 | 22 | 66 | 1015 | 10 | N 7.4 | |
| Oggi h: 12:56 | Sereno | 27 | 21 | 69 | 1015 | 10 | N 0 | |
| Oggi h: 11:56 | Sereno | 26 | 21 | 73 | 1015 | 10 | NO 11.1 | |
| Oggi h: 10:56 | Sereno | 24 | 20 | 78 | 1014 | 10 | N/NO 14.8 | |
| Oggi h: 10:08 | Sereno | 23 | 19 | 78 | 1014 | 0 | NO 18.5 | |
| Oggi h: 10:01 | Foschia | 23 | 20 | 83 | 1014 | 5 | NO 11.1 | |
| Oggi h: 09:56 | Sereno | 23 | 19 | 78 | 1014 | 10 | NO 14.8 | |
| Oggi h: 08:56 | Sereno | 22 | 19 | 83 | 1014 | 10 | NO 14.8 | |
| Oggi h: 07:56 | Nuvoloso | 21 | 18 | 82 | 1015 | 10 | O 14.8 | |
| Oggi h: 06:56 | Sereno | 22 | 19 | 83 | 1013 | 10 | O 14.8 | |
| Oggi h: 05:56 | Sereno | 23 | 22 | 94 | 1012 | 10 | O 16.7 | |
| Oggi h: 04:56 | Sereno | 22 | 22 | 100 | 1011 | 10 | O 9.3 | |
| Oggi h: 03:56 | Sereno | 22 | 21 | 94 | 1010 | 14 | N 5.5 | |
| Oggi h: 02:56 | Sereno | 22 | 21 | 94 | 1010 | 10 | N 5.5 | |
| Oggi h: 01:56 | Sereno | 21 | 20 | 94 | 1010 | 11 | N 0 | |
| Oggi h: 00:56 | Sereno | 22 | 21 | 94 | 1010 | 13 | S/SE 11.1 | |
| Ieri h: 23:56 | Sereno | 21 | 20 | 94 | 1010 | 11 | N 0 | |
| Ieri h: 22:56 | Sereno | 22 | 22 | 100 | 1010 | 14 | N 0 | |



